KIZA

Santa Ynez Airport

Santa Ynez, California, USA
METAR KIZA 231615Z AUTO 32005KT 10SM CLR 05/M01 A3027 RMK AO2
Observed Flight Rules
Feb-23 @ 16:15 UTC (25 minutes ago) Visual Flight Rules
Wind Visibility Clouds
320° at 5 knots 10 miles
  • Clear skies
Temperatures Readings
Current 5°C / 41°F
Dewpoint -1°C / 30°F
Humidity 66%
Altimeter 30.27" Hg
Pressure 1025 hPa
Elevation 205
METAR KIZA 231615Z AUTO 32005KT 10SM CLR 05/M01 A3027 RMK AO2
Observed Flight Rules
Feb-23 @ 16:15 UTC
(25 minutes ago)
VFR
Wind Visibility
320° at 5 knots 10 miles
Clouds
  • Clear skies
Temperature Dewpoint
5°C / 41°F -1°C / 30°F
Humidity Altimeter Pressure
66% 30.27" Hg 1025 hPa